sensor_id;sensor_type;location;lat;lon;timestamp;temperature;humidity
76293;DHT22;65101;51.140;4.088;2022-11-20T00:01:24;19.10;54.30
76293;DHT22;65101;51.140;4.088;2022-11-20T00:03:52;19.10;54.20
76293;DHT22;65101;51.140;4.088;2022-11-20T00:06:19;19.10;54.10
76293;DHT22;65101;51.140;4.088;2022-11-20T00:08:45;19.10;54.20
76293;DHT22;65101;51.140;4.088;2022-11-20T00:11:14;19.10;54.10
76293;DHT22;65101;51.140;4.088;2022-11-20T00:13:40;19.10;54.00
76293;DHT22;65101;51.140;4.088;2022-11-20T00:16:08;19.00;54.00
76293;DHT22;65101;51.140;4.088;2022-11-20T00:18:34;19.00;54.10
76293;DHT22;65101;51.140;4.088;2022-11-20T00:21:22;19.00;54.40
76293;DHT22;65101;51.140;4.088;2022-11-20T00:23:47;19.00;53.90
76293;DHT22;65101;51.140;4.088;2022-11-20T00:26:15;19.00;54.30
76293;DHT22;65101;51.140;4.088;2022-11-20T00:28:41;18.90;53.40
76293;DHT22;65101;51.140;4.088;2022-11-20T00:31:15;18.90;54.30
76293;DHT22;65101;51.140;4.088;2022-11-20T00:33:42;18.90;53.70
76293;DHT22;65101;51.140;4.088;2022-11-20T00:36:13;18.90;54.30
76293;DHT22;65101;51.140;4.088;2022-11-20T00:38:39;18.90;53.70
76293;DHT22;65101;51.140;4.088;2022-11-20T00:41:07;18.90;54.00
76293;DHT22;65101;51.140;4.088;2022-11-20T00:43:33;18.90;53.60
76293;DHT22;65101;51.140;4.088;2022-11-20T00:45:59;18.90;53.90
76293;DHT22;65101;51.140;4.088;2022-11-20T00:48:26;18.80;53.60
76293;DHT22;65101;51.140;4.088;2022-11-20T00:50:52;18.80;53.60
76293;DHT22;65101;51.140;4.088;2022-11-20T00:53:18;18.80;54.20
76293;DHT22;65101;51.140;4.088;2022-11-20T00:55:52;18.80;54.20
76293;DHT22;65101;51.140;4.088;2022-11-20T00:58:18;18.80;53.80
76293;DHT22;65101;51.140;4.088;2022-11-20T01:00:44;18.80;53.70
76293;DHT22;65101;51.140;4.088;2022-11-20T01:03:10;18.80;53.70
76293;DHT22;65101;51.140;4.088;2022-11-20T01:05:35;18.70;53.90
76293;DHT22;65101;51.140;4.088;2022-11-20T01:08:01;18.70;54.10
76293;DHT22;65101;51.140;4.088;2022-11-20T01:10:27;18.70;53.90
76293;DHT22;65101;51.140;4.088;2022-11-20T01:12:52;18.70;53.50
76293;DHT22;65101;51.140;4.088;2022-11-20T01:15:38;18.70;53.90
76293;DHT22;65101;51.140;4.088;2022-11-20T01:18:04;18.60;54.10
76293;DHT22;65101;51.140;4.088;2022-11-20T01:20:34;18.60;53.90
76293;DHT22;65101;51.140;4.088;2022-11-20T01:23:00;18.70;53.70
76293;DHT22;65101;51.140;4.088;2022-11-20T01:25:25;18.60;53.30
76293;DHT22;65101;51.140;4.088;2022-11-20T01:27:51;18.60;53.70
76293;DHT22;65101;51.140;4.088;2022-11-20T01:30:17;18.60;53.70
76293;DHT22;65101;51.140;4.088;2022-11-20T01:32:42;18.60;54.10
76293;DHT22;65101;51.140;4.088;2022-11-20T01:35:08;18.60;54.10
76293;DHT22;65101;51.140;4.088;2022-11-20T01:37:35;18.50;54.00
76293;DHT22;65101;51.140;4.088;2022-11-20T01:40:00;18.50;54.00
76293;DHT22;65101;51.140;4.088;2022-11-20T01:42:26;18.50;54.60
76293;DHT22;65101;51.140;4.088;2022-11-20T01:45:48;18.50;53.70
76293;DHT22;65101;51.140;4.088;2022-11-20T01:48:18;18.50;53.60
76293;DHT22;65101;51.140;4.088;2022-11-20T01:50:44;18.50;53.30
76293;DHT22;65101;51.140;4.088;2022-11-20T01:53:14;18.50;54.10
76293;DHT22;65101;51.140;4.088;2022-11-20T01:55:51;18.50;54.00
76293;DHT22;65101;51.140;4.088;2022-11-20T01:58:21;18.50;54.00
76293;DHT22;65101;51.140;4.088;2022-11-20T02:00:48;18.40;54.00
76293;DHT22;65101;51.140;4.088;2022-11-20T02:03:16;18.40;54.00
76293;DHT22;65101;51.140;4.088;2022-11-20T02:06:24;18.40;54.20
76293;DHT22;65101;51.140;4.088;2022-11-20T02:08:42;18.40;53.60
76293;DHT22;65101;51.140;4.088;2022-11-20T02:11:08;18.40;54.10
76293;DHT22;65101;51.140;4.088;2022-11-20T02:13:34;18.30;54.10
76293;DHT22;65101;51.140;4.088;2022-11-20T02:18:46;18.30;53.90
76293;DHT22;65101;51.140;4.088;2022-11-20T02:24:18;18.30;53.80
76293;DHT22;65101;51.140;4.088;2022-11-20T02:27:07;18.30;53.70
76293;DHT22;65101;51.140;4.088;2022-11-20T02:29:39;18.30;53.50
76293;DHT22;65101;51.140;4.088;2022-11-20T02:32:06;18.30;54.00
76293;DHT22;65101;51.140;4.088;2022-11-20T02:34:42;18.20;54.10
76293;DHT22;65101;51.140;4.088;2022-11-20T02:37:08;18.20;53.90
76293;DHT22;65101;51.140;4.088;2022-11-20T02:39:33;18.20;54.20
76293;DHT22;65101;51.140;4.088;2022-11-20T02:42:01;18.20;54.10
76293;DHT22;65101;51.140;4.088;2022-11-20T02:44:27;18.20;54.00
76293;DHT22;65101;51.140;4.088;2022-11-20T02:46:53;18.20;54.20
76293;DHT22;65101;51.140;4.088;2022-11-20T02:49:18;18.20;54.10
76293;DHT22;65101;51.140;4.088;2022-11-20T02:51:44;18.10;53.80
76293;DHT22;65101;51.140;4.088;2022-11-20T02:54:10;18.20;54.00
76293;DHT22;65101;51.140;4.088;2022-11-20T02:56:38;18.10;54.30
76293;DHT22;65101;51.140;4.088;2022-11-20T02:59:04;18.20;54.60
76293;DHT22;65101;51.140;4.088;2022-11-20T03:01:30;18.20;54.00
76293;DHT22;65101;51.140;4.088;2022-11-20T03:03:55;18.10;53.70
76293;DHT22;65101;51.140;4.088;2022-11-20T03:06:21;18.10;54.20
76293;DHT22;65101;51.140;4.088;2022-11-20T03:08:48;18.10;53.60
76293;DHT22;65101;51.140;4.088;2022-11-20T03:11:13;18.10;53.80
76293;DHT22;65101;51.140;4.088;2022-11-20T03:13:39;18.10;54.20
76293;DHT22;65101;51.140;4.088;2022-11-20T03:16:09;18.10;54.10
76293;DHT22;65101;51.140;4.088;2022-11-20T03:18:35;18.10;53.70
76293;DHT22;65101;51.140;4.088;2022-11-20T03:21:01;18.10;53.90
76293;DHT22;65101;51.140;4.088;2022-11-20T03:23:29;18.10;53.80
76293;DHT22;65101;51.140;4.088;2022-11-20T03:25:56;18.10;53.90
76293;DHT22;65101;51.140;4.088;2022-11-20T03:28:31;18.10;54.10
76293;DHT22;65101;51.140;4.088;2022-11-20T03:30:57;18.00;54.00
76293;DHT22;65101;51.140;4.088;2022-11-20T03:33:23;18.10;53.80
76293;DHT22;65101;51.140;4.088;2022-11-20T03:35:48;18.10;54.00
76293;DHT22;65101;51.140;4.088;2022-11-20T03:38:14;18.00;54.00
76293;DHT22;65101;51.140;4.088;2022-11-20T03:40:40;18.00;53.70
76293;DHT22;65101;51.140;4.088;2022-11-20T03:43:05;18.00;53.90
76293;DHT22;65101;51.140;4.088;2022-11-20T03:45:31;18.00;53.80
76293;DHT22;65101;51.140;4.088;2022-11-20T03:47:56;18.00;53.80
76293;DHT22;65101;51.140;4.088;2022-11-20T03:50:22;18.00;54.00
76293;DHT22;65101;51.140;4.088;2022-11-20T03:52:48;18.00;54.50
76293;DHT22;65101;51.140;4.088;2022-11-20T03:55:13;18.00;53.80
76293;DHT22;65101;51.140;4.088;2022-11-20T03:57:39;18.00;53.90
76293;DHT22;65101;51.140;4.088;2022-11-20T04:00:05;18.00;54.20
76293;DHT22;65101;51.140;4.088;2022-11-20T04:02:31;18.00;53.80
76293;DHT22;65101;51.140;4.088;2022-11-20T04:04:57;17.90;54.00
76293;DHT22;65101;51.140;4.088;2022-11-20T04:07:22;17.90;54.00
76293;DHT22;65101;51.140;4.088;2022-11-20T04:09:48;17.90;53.90
76293;DHT22;65101;51.140;4.088;2022-11-20T04:12:14;17.90;54.00
76293;DHT22;65101;51.140;4.088;2022-11-20T04:14:40;17.90;53.70
76293;DHT22;65101;51.140;4.088;2022-11-20T04:17:05;17.90;54.20
76293;DHT22;65101;51.140;4.088;2022-11-20T04:19:31;17.90;53.70
76293;DHT22;65101;51.140;4.088;2022-11-20T04:21:57;17.90;53.90
76293;DHT22;65101;51.140;4.088;2022-11-20T04:24:22;17.90;54.00
76293;DHT22;65101;51.140;4.088;2022-11-20T04:26:48;17.90;53.90
76293;DHT22;65101;51.140;4.088;2022-11-20T04:29:14;17.90;53.90
76293;DHT22;65101;51.140;4.088;2022-11-20T04:31:39;17.90;54.00
76293;DHT22;65101;51.140;4.088;2022-11-20T04:34:06;17.80;54.00
76293;DHT22;65101;51.140;4.088;2022-11-20T04:36:33;17.80;53.80
76293;DHT22;65101;51.140;4.088;2022-11-20T04:39:01;17.80;53.70
76293;DHT22;65101;51.140;4.088;2022-11-20T04:41:30;17.80;54.10
76293;DHT22;65101;51.140;4.088;2022-11-20T04:43:58;17.80;53.90
76293;DHT22;65101;51.140;4.088;2022-11-20T04:46:27;17.80;54.10
76293;DHT22;65101;51.140;4.088;2022-11-20T04:48:53;17.80;53.90
76293;DHT22;65101;51.140;4.088;2022-11-20T04:51:19;17.80;54.20
76293;DHT22;65101;51.140;4.088;2022-11-20T04:53:44;17.80;54.00
76293;DHT22;65101;51.140;4.088;2022-11-20T04:56:11;17.80;54.10
76293;DHT22;65101;51.140;4.088;2022-11-20T04:58:37;17.80;54.00
76293;DHT22;65101;51.140;4.088;2022-11-20T05:01:05;17.80;54.10
76293;DHT22;65101;51.140;4.088;2022-11-20T05:03:31;17.80;53.80
76293;DHT22;65101;51.140;4.088;2022-11-20T05:06:00;17.80;54.10
76293;DHT22;65101;51.140;4.088;2022-11-20T05:08:27;17.80;53.60
76293;DHT22;65101;51.140;4.088;2022-11-20T05:10:52;17.80;54.20
76293;DHT22;65101;51.140;4.088;2022-11-20T05:13:18;17.80;54.40
76293;DHT22;65101;51.140;4.088;2022-11-20T05:15:44;17.80;53.90
76293;DHT22;65101;51.140;4.088;2022-11-20T05:18:09;17.70;54.10
76293;DHT22;65101;51.140;4.088;2022-11-20T05:20:35;17.80;54.00
76293;DHT22;65101;51.140;4.088;2022-11-20T05:23:02;17.80;53.70
76293;DHT22;65101;51.140;4.088;2022-11-20T05:25:27;17.80;54.20
76293;DHT22;65101;51.140;4.088;2022-11-20T05:27:53;17.70;54.10
76293;DHT22;65101;51.140;4.088;2022-11-20T05:30:19;17.80;54.30
76293;DHT22;65101;51.140;4.088;2022-11-20T05:32:45;17.70;54.20
76293;DHT22;65101;51.140;4.088;2022-11-20T05:35:10;17.70;54.00
76293;DHT22;65101;51.140;4.088;2022-11-20T05:37:36;17.70;54.20
76293;DHT22;65101;51.140;4.088;2022-11-20T05:40:02;17.70;54.30
76293;DHT22;65101;51.140;4.088;2022-11-20T05:42:30;17.70;54.10
76293;DHT22;65101;51.140;4.088;2022-11-20T05:45:01;17.70;54.20
76293;DHT22;65101;51.140;4.088;2022-11-20T05:47:30;17.70;54.20
76293;DHT22;65101;51.140;4.088;2022-11-20T05:49:56;17.70;54.20
76293;DHT22;65101;51.140;4.088;2022-11-20T05:52:22;17.70;54.20
76293;DHT22;65101;51.140;4.088;2022-11-20T05:54:47;17.70;54.10
76293;DHT22;65101;51.140;4.088;2022-11-20T05:57:13;17.70;54.20
76293;DHT22;65101;51.140;4.088;2022-11-20T05:59:39;17.70;54.30
76293;DHT22;65101;51.140;4.088;2022-11-20T06:02:04;17.70;54.30
76293;DHT22;65101;51.140;4.088;2022-11-20T06:04:30;17.70;54.10
76293;DHT22;65101;51.140;4.088;2022-11-20T06:06:56;17.70;54.20
76293;DHT22;65101;51.140;4.088;2022-11-20T06:09:22;17.60;53.80
76293;DHT22;65101;51.140;4.088;2022-11-20T06:11:47;17.70;54.40
76293;DHT22;65101;51.140;4.088;2022-11-20T06:14:13;17.70;54.20
76293;DHT22;65101;51.140;4.088;2022-11-20T06:16:38;17.60;54.10
76293;DHT22;65101;51.140;4.088;2022-11-20T06:19:04;17.60;54.20
76293;DHT22;65101;51.140;4.088;2022-11-20T06:21:30;17.60;53.90
76293;DHT22;65101;51.140;4.088;2022-11-20T06:23:56;17.60;54.30
76293;DHT22;65101;51.140;4.088;2022-11-20T06:26:24;17.60;54.30
76293;DHT22;65101;51.140;4.088;2022-11-20T06:28:50;17.60;54.10
76293;DHT22;65101;51.140;4.088;2022-11-20T06:31:19;17.60;54.20
76293;DHT22;65101;51.140;4.088;2022-11-20T06:33:45;17.60;54.30
76293;DHT22;65101;51.140;4.088;2022-11-20T06:36:12;17.60;54.40
76293;DHT22;65101;51.140;4.088;2022-11-20T06:38:39;17.60;54.10
76293;DHT22;65101;51.140;4.088;2022-11-20T06:41:06;17.50;54.50
76293;DHT22;65101;51.140;4.088;2022-11-20T06:43:32;17.50;54.30
76293;DHT22;65101;51.140;4.088;2022-11-20T06:45:59;17.50;54.40
76293;DHT22;65101;51.140;4.088;2022-11-20T06:48:26;17.50;54.40
76293;DHT22;65101;51.140;4.088;2022-11-20T06:50:52;17.50;54.50
76293;DHT22;65101;51.140;4.088;2022-11-20T06:53:18;17.50;54.20
76293;DHT22;65101;51.140;4.088;2022-11-20T06:55:45;17.50;54.40
76293;DHT22;65101;51.140;4.088;2022-11-20T06:58:11;17.50;54.40
76293;DHT22;65101;51.140;4.088;2022-11-20T07:00:37;17.50;54.20
76293;DHT22;65101;51.140;4.088;2022-11-20T07:03:04;17.50;54.10
76293;DHT22;65101;51.140;4.088;2022-11-20T07:05:29;17.50;54.40
76293;DHT22;65101;51.140;4.088;2022-11-20T07:07:56;17.50;54.50
76293;DHT22;65101;51.140;4.088;2022-11-20T07:10:22;17.50;54.10
76293;DHT22;65101;51.140;4.088;2022-11-20T07:12:53;17.50;54.60
76293;DHT22;65101;51.140;4.088;2022-11-20T07:15:20;17.50;54.60
76293;DHT22;65101;51.140;4.088;2022-11-20T07:17:46;17.50;54.50
76293;DHT22;65101;51.140;4.088;2022-11-20T07:20:13;17.50;54.00
76293;DHT22;65101;51.140;4.088;2022-11-20T07:22:39;17.50;54.50
76293;DHT22;65101;51.140;4.088;2022-11-20T07:25:05;17.50;54.60
76293;DHT22;65101;51.140;4.088;2022-11-20T07:27:31;17.40;54.50
76293;DHT22;65101;51.140;4.088;2022-11-20T07:29:56;17.50;54.50
76293;DHT22;65101;51.140;4.088;2022-11-20T07:32:22;17.50;54.60
76293;DHT22;65101;51.140;4.088;2022-11-20T07:34:49;17.50;54.40
76293;DHT22;65101;51.140;4.088;2022-11-20T07:37:15;17.40;54.50
76293;DHT22;65101;51.140;4.088;2022-11-20T07:39:41;17.40;54.50
76293;DHT22;65101;51.140;4.088;2022-11-20T07:42:07;17.50;54.50
76293;DHT22;65101;51.140;4.088;2022-11-20T07:44:33;17.50;54.60
76293;DHT22;65101;51.140;4.088;2022-11-20T07:46:59;17.50;54.10
76293;DHT22;65101;51.140;4.088;2022-11-20T07:49:25;17.60;54.40
76293;DHT22;65101;51.140;4.088;2022-11-20T07:51:51;17.70;54.10
76293;DHT22;65101;51.140;4.088;2022-11-20T07:54:19;17.90;54.20
76293;DHT22;65101;51.140;4.088;2022-11-20T07:56:46;18.10;53.50
76293;DHT22;65101;51.140;4.088;2022-11-20T07:59:12;18.10;53.20
76293;DHT22;65101;51.140;4.088;2022-11-20T08:01:41;18.20;53.20
76293;DHT22;65101;51.140;4.088;2022-11-20T08:04:07;18.40;53.20
76293;DHT22;65101;51.140;4.088;2022-11-20T08:06:32;18.60;53.20
76293;DHT22;65101;51.140;4.088;2022-11-20T08:08:58;18.80;52.70
76293;DHT22;65101;51.140;4.088;2022-11-20T08:11:24;19.10;52.40
76293;DHT22;65101;51.140;4.088;2022-11-20T08:14:08;19.40;52.00
76293;DHT22;65101;51.140;4.088;2022-11-20T08:16:45;19.60;51.40
76293;DHT22;65101;51.140;4.088;2022-11-20T08:19:12;19.90;50.70
76293;DHT22;65101;51.140;4.088;2022-11-20T08:21:39;20.10;50.30
76293;DHT22;65101;51.140;4.088;2022-11-20T08:24:06;20.30;50.00
76293;DHT22;65101;51.140;4.088;2022-11-20T08:26:32;20.50;49.50
76293;DHT22;65101;51.140;4.088;2022-11-20T08:28:58;20.70;49.10
76293;DHT22;65101;51.140;4.088;2022-11-20T08:31:26;20.80;48.90
76293;DHT22;65101;51.140;4.088;2022-11-20T08:33:52;21.00;48.90
76293;DHT22;65101;51.140;4.088;2022-11-20T08:36:18;21.10;48.60
76293;DHT22;65101;51.140;4.088;2022-11-20T08:38:55;21.20;48.80
76293;DHT22;65101;51.140;4.088;2022-11-20T08:41:21;21.20;47.90
76293;DHT22;65101;51.140;4.088;2022-11-20T08:44:04;21.30;48.20
76293;DHT22;65101;51.140;4.088;2022-11-20T08:46:34;21.40;47.80
76293;DHT22;65101;51.140;4.088;2022-11-20T08:49:00;21.40;48.40
76293;DHT22;65101;51.140;4.088;2022-11-20T08:51:26;21.50;47.80
76293;DHT22;65101;51.140;4.088;2022-11-20T08:53:52;21.50;47.60
76293;DHT22;65101;51.140;4.088;2022-11-20T08:56:17;21.60;47.60
76293;DHT22;65101;51.140;4.088;2022-11-20T08:58:43;21.60;47.40
76293;DHT22;65101;51.140;4.088;2022-11-20T09:01:09;21.70;47.90
76293;DHT22;65101;51.140;4.088;2022-11-20T09:03:35;21.70;47.60
76293;DHT22;65101;51.140;4.088;2022-11-20T09:06:03;21.70;47.50
76293;DHT22;65101;51.140;4.088;2022-11-20T09:08:30;21.70;47.30
76293;DHT22;65101;51.140;4.088;2022-11-20T09:10:56;21.70;47.30
76293;DHT22;65101;51.140;4.088;2022-11-20T09:13:23;21.70;47.30
76293;DHT22;65101;51.140;4.088;2022-11-20T09:15:58;21.70;47.40
76293;DHT22;65101;51.140;4.088;2022-11-20T09:18:25;21.70;47.10
76293;DHT22;65101;51.140;4.088;2022-11-20T09:20:51;21.70;47.20
76293;DHT22;65101;51.140;4.088;2022-11-20T09:23:17;21.80;47.50
76293;DHT22;65101;51.140;4.088;2022-11-20T09:25:43;21.70;47.20
76293;DHT22;65101;51.140;4.088;2022-11-20T09:28:09;21.70;47.30
76293;DHT22;65101;51.140;4.088;2022-11-20T09:30:35;21.70;47.40
76293;DHT22;65101;51.140;4.088;2022-11-20T09:33:00;21.70;47.50
76293;DHT22;65101;51.140;4.088;2022-11-20T09:35:26;21.50;47.40
76293;DHT22;65101;51.140;4.088;2022-11-20T09:37:52;21.50;47.70
76293;DHT22;65101;51.140;4.088;2022-11-20T09:40:23;21.40;47.40
76293;DHT22;65101;51.140;4.088;2022-11-20T09:52:14;21.20;47.60
76293;DHT22;65101;51.140;4.088;2022-11-20T09:54:27;21.10;48.00
76293;DHT22;65101;51.140;4.088;2022-11-20T09:57:25;21.10;48.20
76293;DHT22;65101;51.140;4.088;2022-11-20T10:00:04;21.10;48.10
76293;DHT22;65101;51.140;4.088;2022-11-20T10:05:31;21.00;48.90
76293;DHT22;65101;51.140;4.088;2022-11-20T10:10:46;21.00;48.80
76293;DHT22;65101;51.140;4.088;2022-11-20T10:16:26;20.90;49.30
76293;DHT22;65101;51.140;4.088;2022-11-20T10:19:20;20.90;49.50
76293;DHT22;65101;51.140;4.088;2022-11-20T10:25:05;20.80;49.20
76293;DHT22;65101;51.140;4.088;2022-11-20T10:30:19;20.80;49.50
76293;DHT22;65101;51.140;4.088;2022-11-20T10:33:05;20.70;49.80
76293;DHT22;65101;51.140;4.088;2022-11-20T10:35:43;20.70;50.20
76293;DHT22;65101;51.140;4.088;2022-11-20T10:38:20;20.70;50.10
76293;DHT22;65101;51.140;4.088;2022-11-20T10:40:55;20.60;50.40
76293;DHT22;65101;51.140;4.088;2022-11-20T10:43:46;20.60;50.40
76293;DHT22;65101;51.140;4.088;2022-11-20T10:46:19;20.60;50.60
76293;DHT22;65101;51.140;4.088;2022-11-20T10:48:47;20.60;50.60
76293;DHT22;65101;51.140;4.088;2022-11-20T10:51:37;20.50;50.70
76293;DHT22;65101;51.140;4.088;2022-11-20T10:56:51;20.40;51.10
76293;DHT22;65101;51.140;4.088;2022-11-20T11:02:20;20.30;51.50
76293;DHT22;65101;51.140;4.088;2022-11-20T11:04:51;20.20;51.50
76293;DHT22;65101;51.140;4.088;2022-11-20T11:07:38;20.20;51.40
76293;DHT22;65101;51.140;4.088;2022-11-20T11:10:15;20.30;51.60
76293;DHT22;65101;51.140;4.088;2022-11-20T11:12:45;20.30;51.40
76293;DHT22;65101;51.140;4.088;2022-11-20T11:15:26;20.30;51.60
76293;DHT22;65101;51.140;4.088;2022-11-20T11:17:53;20.30;51.40
76293;DHT22;65101;51.140;4.088;2022-11-20T11:20:24;20.20;52.00
76293;DHT22;65101;51.140;4.088;2022-11-20T11:22:56;20.20;51.40
76293;DHT22;65101;51.140;4.088;2022-11-20T11:25:31;20.20;51.60
76293;DHT22;65101;51.140;4.088;2022-11-20T11:28:17;20.20;51.60
76293;DHT22;65101;51.140;4.088;2022-11-20T11:30:45;20.20;51.70
76293;DHT22;65101;51.140;4.088;2022-11-20T11:33:19;20.10;51.80
76293;DHT22;65101;51.140;4.088;2022-11-20T11:35:47;20.20;51.70
76293;DHT22;65101;51.140;4.088;2022-11-20T11:38:17;20.10;51.60
76293;DHT22;65101;51.140;4.088;2022-11-20T11:40:45;20.10;51.80
76293;DHT22;65101;51.140;4.088;2022-11-20T11:43:20;20.00;51.90
76293;DHT22;65101;51.140;4.088;2022-11-20T11:49:01;20.10;52.10
76293;DHT22;65101;51.140;4.088;2022-11-20T11:51:47;20.00;52.20
76293;DHT22;65101;51.140;4.088;2022-11-20T11:57:45;20.00;52.20
76293;DHT22;65101;51.140;4.088;2022-11-20T12:00:16;19.90;52.20
76293;DHT22;65101;51.140;4.088;2022-11-20T12:05:36;19.90;52.30
76293;DHT22;65101;51.140;4.088;2022-11-20T12:11:16;19.80;52.80
76293;DHT22;65101;51.140;4.088;2022-11-20T12:13:58;19.80;52.70
76293;DHT22;65101;51.140;4.088;2022-11-20T12:16:27;19.90;52.10
76293;DHT22;65101;51.140;4.088;2022-11-20T12:18:53;19.90;52.10
76293;DHT22;65101;51.140;4.088;2022-11-20T12:37:50;19.60;53.20
76293;DHT22;65101;51.140;4.088;2022-11-20T12:40:23;19.50;53.10
76293;DHT22;65101;51.140;4.088;2022-11-20T12:42:58;19.50;53.40
76293;DHT22;65101;51.140;4.088;2022-11-20T12:46:15;19.50;53.00
76293;DHT22;65101;51.140;4.088;2022-11-20T12:54:56;19.50;52.80
76293;DHT22;65101;51.140;4.088;2022-11-20T12:57:37;19.60;52.70
76293;DHT22;65101;51.140;4.088;2022-11-20T13:00:14;19.50;52.60
76293;DHT22;65101;51.140;4.088;2022-11-20T13:05:31;19.50;52.90
76293;DHT22;65101;51.140;4.088;2022-11-20T13:08:00;19.40;52.90
76293;DHT22;65101;51.140;4.088;2022-11-20T13:10:43;19.50;52.80
76293;DHT22;65101;51.140;4.088;2022-11-20T13:13:59;19.50;52.80
76293;DHT22;65101;51.140;4.088;2022-11-20T13:18:51;19.40;52.80
76293;DHT22;65101;51.140;4.088;2022-11-20T13:21:40;19.40;52.80
76293;DHT22;65101;51.140;4.088;2022-11-20T13:24:29;19.40;52.70
76293;DHT22;65101;51.140;4.088;2022-11-20T13:29:35;19.40;52.80
76293;DHT22;65101;51.140;4.088;2022-11-20T13:32:07;19.30;52.80
76293;DHT22;65101;51.140;4.088;2022-11-20T13:34:38;19.30;53.10
76293;DHT22;65101;51.140;4.088;2022-11-20T13:37:04;19.30;53.40
76293;DHT22;65101;51.140;4.088;2022-11-20T13:39:35;19.40;53.40
76293;DHT22;65101;51.140;4.088;2022-11-20T13:44:42;19.40;53.40
76293;DHT22;65101;51.140;4.088;2022-11-20T13:47:28;19.70;52.70
76293;DHT22;65101;51.140;4.088;2022-11-20T13:49:57;19.90;51.90
76293;DHT22;65101;51.140;4.088;2022-11-20T13:57:58;20.40;51.40
76293;DHT22;65101;51.140;4.088;2022-11-20T14:00:27;20.50;51.30
76293;DHT22;65101;51.140;4.088;2022-11-20T14:03:09;20.50;51.00
76293;DHT22;65101;51.140;4.088;2022-11-20T14:05:40;20.60;51.20
76293;DHT22;65101;51.140;4.088;2022-11-20T14:08:21;20.70;50.60
76293;DHT22;65101;51.140;4.088;2022-11-20T14:10:48;20.80;50.60
76293;DHT22;65101;51.140;4.088;2022-11-20T14:13:20;20.80;50.50
76293;DHT22;65101;51.140;4.088;2022-11-20T14:15:46;20.90;50.50
76293;DHT22;65101;51.140;4.088;2022-11-20T14:18:18;21.00;50.40
76293;DHT22;65101;51.140;4.088;2022-11-20T14:20:44;21.00;50.20
76293;DHT22;65101;51.140;4.088;2022-11-20T14:23:11;21.10;50.00
76293;DHT22;65101;51.140;4.088;2022-11-20T14:25:37;21.20;50.10
76293;DHT22;65101;51.140;4.088;2022-11-20T14:28:16;21.20;49.90
76293;DHT22;65101;51.140;4.088;2022-11-20T14:30:47;21.30;49.70
76293;DHT22;65101;51.140;4.088;2022-11-20T14:33:14;21.30;49.70
76293;DHT22;65101;51.140;4.088;2022-11-20T14:35:51;21.40;49.70
76293;DHT22;65101;51.140;4.088;2022-11-20T14:38:21;21.50;49.50
76293;DHT22;65101;51.140;4.088;2022-11-20T14:40:47;21.50;49.50
76293;DHT22;65101;51.140;4.088;2022-11-20T14:43:31;21.70;49.30
76293;DHT22;65101;51.140;4.088;2022-11-20T14:46:07;21.70;49.70
76293;DHT22;65101;51.140;4.088;2022-11-20T14:48:55;21.70;49.20
76293;DHT22;65101;51.140;4.088;2022-11-20T14:54:15;21.80;49.10
76293;DHT22;65101;51.140;4.088;2022-11-20T14:56:42;21.80;49.30
76293;DHT22;65101;51.140;4.088;2022-11-20T14:59:27;21.80;49.40
76293;DHT22;65101;51.140;4.088;2022-11-20T15:02:05;21.80;49.40
76293;DHT22;65101;51.140;4.088;2022-11-20T15:04:32;21.80;49.30
76293;DHT22;65101;51.140;4.088;2022-11-20T15:06:59;21.80;49.30
76293;DHT22;65101;51.140;4.088;2022-11-20T15:09:25;21.90;49.20
76293;DHT22;65101;51.140;4.088;2022-11-20T15:11:56;21.90;49.20
76293;DHT22;65101;51.140;4.088;2022-11-20T15:14:25;21.90;49.20
76293;DHT22;65101;51.140;4.088;2022-11-20T15:16:52;21.90;49.00
76293;DHT22;65101;51.140;4.088;2022-11-20T15:19:22;22.00;49.10
76293;DHT22;65101;51.140;4.088;2022-11-20T15:21:48;22.00;48.90
76293;DHT22;65101;51.140;4.088;2022-11-20T15:24:15;22.10;48.80
76293;DHT22;65101;51.140;4.088;2022-11-20T15:26:41;22.10;48.90
76293;DHT22;65101;51.140;4.088;2022-11-20T15:29:12;22.10;48.80
76293;DHT22;65101;51.140;4.088;2022-11-20T15:31:39;22.10;48.80
76293;DHT22;65101;51.140;4.088;2022-11-20T15:34:16;22.10;48.90
76293;DHT22;65101;51.140;4.088;2022-11-20T15:36:42;22.20;48.70
76293;DHT22;65101;51.140;4.088;2022-11-20T15:39:09;22.20;48.60
76293;DHT22;65101;51.140;4.088;2022-11-20T15:41:35;22.30;48.40
76293;DHT22;65101;51.140;4.088;2022-11-20T15:44:02;22.30;48.50
76293;DHT22;65101;51.140;4.088;2022-11-20T15:46:31;22.30;49.00
76293;DHT22;65101;51.140;4.088;2022-11-20T15:49:03;22.30;48.30
76293;DHT22;65101;51.140;4.088;2022-11-20T15:51:34;22.30;48.10
76293;DHT22;65101;51.140;4.088;2022-11-20T15:54:01;22.40;48.30
76293;DHT22;65101;51.140;4.088;2022-11-20T15:56:28;22.40;48.20
76293;DHT22;65101;51.140;4.088;2022-11-20T15:58:54;22.40;48.10
76293;DHT22;65101;51.140;4.088;2022-11-20T16:01:23;22.40;48.20
76293;DHT22;65101;51.140;4.088;2022-11-20T16:03:49;22.50;48.20
76293;DHT22;65101;51.140;4.088;2022-11-20T16:06:14;22.60;48.00
76293;DHT22;65101;51.140;4.088;2022-11-20T16:08:41;22.60;47.90
76293;DHT22;65101;51.140;4.088;2022-11-20T16:11:12;22.60;47.60
76293;DHT22;65101;51.140;4.088;2022-11-20T16:13:38;22.60;47.60
76293;DHT22;65101;51.140;4.088;2022-11-20T16:18:53;22.70;47.70
76293;DHT22;65101;51.140;4.088;2022-11-20T16:21:19;22.60;47.70
76293;DHT22;65101;51.140;4.088;2022-11-20T16:23:44;22.70;47.60
76293;DHT22;65101;51.140;4.088;2022-11-20T16:26:12;22.70;47.50
76293;DHT22;65101;51.140;4.088;2022-11-20T16:28:39;22.80;47.60
76293;DHT22;65101;51.140;4.088;2022-11-20T16:31:13;22.80;47.50
76293;DHT22;65101;51.140;4.088;2022-11-20T16:33:39;22.80;47.00
76293;DHT22;65101;51.140;4.088;2022-11-20T16:36:12;22.90;47.30
76293;DHT22;65101;51.140;4.088;2022-11-20T16:38:38;22.80;47.20
76293;DHT22;65101;51.140;4.088;2022-11-20T16:41:05;22.80;47.10
76293;DHT22;65101;51.140;4.088;2022-11-20T16:43:31;22.90;47.20
76293;DHT22;65101;51.140;4.088;2022-11-20T16:45:56;22.90;47.30
76293;DHT22;65101;51.140;4.088;2022-11-20T16:48:22;22.90;47.20
76293;DHT22;65101;51.140;4.088;2022-11-20T16:50:51;22.90;47.20
76293;DHT22;65101;51.140;4.088;2022-11-20T16:53:19;22.90;47.10
76293;DHT22;65101;51.140;4.088;2022-11-20T16:55:45;23.00;47.00
76293;DHT22;65101;51.140;4.088;2022-11-20T16:58:11;23.00;47.00
76293;DHT22;65101;51.140;4.088;2022-11-20T17:00:39;23.00;46.80
76293;DHT22;65101;51.140;4.088;2022-11-20T17:03:06;23.00;46.80
76293;DHT22;65101;51.140;4.088;2022-11-20T17:05:32;23.00;46.60
76293;DHT22;65101;51.140;4.088;2022-11-20T17:07:59;23.10;46.70
76293;DHT22;65101;51.140;4.088;2022-11-20T17:10:25;23.00;46.70
76293;DHT22;65101;51.140;4.088;2022-11-20T17:12:50;23.00;46.90
76293;DHT22;65101;51.140;4.088;2022-11-20T17:15:16;23.10;46.80